Airfield :
LOGIN :

Register | Disclaimer

   EN    FR    IT 

 










Legend :    VFR   Marginal VFR   IFR   Intensive IFR   Very Intensive IFR
Visi :
Ceiling :
>= 8 km
>= 3000ft
5 to 8 km
1000 to 3000 ft
1500m to 5 km
500 to 1000 ft
800 to 1500m
200 to 500 ft
< 800m
< 200 ft
Symbols :   Thunderstorms  Fog  Heavy snow  Heavy precipitations  Wind > 20 kt
SIGMETs :     Misc.  Thunderstorms  Icing  Turbulence  Mountain Waves  Volcanic Ashes







- Airport Elevation : 313 ft
- IATA code : LEH
- Download approach charts


LFOH - Le Havre Octeville

CURRENT METAR :
  • 220200Z AUTO 12003KT 5000 BR OVC005 08/07 Q1030

EXPIRED METARs :
  • 220130Z AUTO 12004KT 7000 OVC005 08/07 Q1031
  • 220100Z AUTO 11004KT 8000 OVC006 08/07 Q1031
  • 220000Z AUTO 10003KT 070V130 8000 OVC007 08/07 Q1031

TAF AMD TAF LFOH
Valid from the 21 at 14:00 until the 22 at 12:00 UTC


211434Z 2114/2212 VRB03KT 9999 SCT008 OVC018
BECMG 2200/2203 2000 BR
BECMG 2203/2206 0300 FG VV///
BECMG 2208/2210 8000 NSW OVC003
BECMG 2210/2212 BKN012
ATIS : +33 2 35 54 64 93
No reported NOTAMs for that airfield.



MET'MAP, your aeronautical weather chart ! - Copyright ORBIFLY December 2007 - Disclaimer

ORBIFLY MET'MAP TEAM :

Programming & Development : Alexandra Zaïnal
Concept & Development : Baudouin d'Aumeries
Co-Development & Prog : Marc-Olivier Méhu
Technical & hardware support : Manuel Goepfert

Contact : metmap@orbifly.com




SOURCES & CREDITS :

   NOAA